Terminal Aerodrome Forecast
Issued by NWS

Home | Current Version | Previous Version | Text Only | Print | Product List | Glossary On
Versions: 1 2 3 4 5 6 7 8 9 10 11 12 13
647
FTPA31 PHFO 282335
TAFHJH
TAF
PHJH 282335Z 2900/2924 05018G28KT P6SM FEW025 SCT040
     FM290500 05012G18KT P6SM FEW025 BKN040
     FM291900 05018G28KT P6SM FEW015 SCT040
      AMD NOT SKED 2904/2916=

USA.gov is the U.S. government's official web portal to all federal, state and local government web resources and services.